createdAt,value
2022-12-01T00:03:56.858Z,6.68
2022-12-01T00:09:09.783Z,5.53
2022-12-01T00:14:03.821Z,5.90
2022-12-01T00:18:57.753Z,6.55
2022-12-01T00:23:53.679Z,5.53
2022-12-01T00:29:10.340Z,6.40
2022-12-01T00:34:08.117Z,5.50
2022-12-01T00:39:04.942Z,5.28
2022-12-01T00:43:58.341Z,5.57
2022-12-01T00:48:52.141Z,5.45
2022-12-01T00:53:46.909Z,6.80
2022-12-01T00:58:41.248Z,5.65
2022-12-01T01:03:35.701Z,5.25
2022-12-01T01:08:29.857Z,5.05
2022-12-01T01:13:23.939Z,4.30
2022-12-01T01:18:17.069Z,5.70
2022-12-01T01:23:10.800Z,5.47
2022-12-01T01:28:04.622Z,7.68
2022-12-01T01:32:58.123Z,4.85
2022-12-01T01:37:53.199Z,5.22
2022-12-01T01:42:46.911Z,4.63
2022-12-01T01:47:42.645Z,5.10
2022-12-01T01:52:41.764Z,4.50
2022-12-01T01:57:35.871Z,4.03
2022-12-01T02:02:29.781Z,4.95
2022-12-01T02:07:27.311Z,4.75
2022-12-01T02:12:29.678Z,4.75
2022-12-01T02:17:42.129Z,4.53
2022-12-01T02:23:02.553Z,4.60
2022-12-01T02:28:14.576Z,4.60
2022-12-01T02:33:24.278Z,4.88
2022-12-01T02:38:24.978Z,4.47
2022-12-01T02:43:30.721Z,4.35
2022-12-01T02:48:37.042Z,5.43
2022-12-01T02:53:31.481Z,5.93
2022-12-01T02:58:25.196Z,4.68
2022-12-01T03:03:56.335Z,4.38
2022-12-01T03:09:04.112Z,4.43
2022-12-01T03:14:02.222Z,5.10
2022-12-01T03:19:17.945Z,4.38
2022-12-01T03:24:16.053Z,4.47
2022-12-01T03:29:30.901Z,5.47
2022-12-01T03:34:57.062Z,5.40
2022-12-01T03:40:00.634Z,4.15
2022-12-01T03:45:01.285Z,4.75
2022-12-01T03:49:55.793Z,4.00
2022-12-01T03:55:03.533Z,4.55
2022-12-01T03:59:57.244Z,4.25
2022-12-01T04:04:51.154Z,4.78
2022-12-01T04:09:45.128Z,4.63
2022-12-01T04:14:38.794Z,4.15
2022-12-01T04:19:32.857Z,5.10
2022-12-01T04:24:26.617Z,5.25
2022-12-01T04:29:21.106Z,4.28
2022-12-01T04:34:14.080Z,5.22
2022-12-01T04:39:08.176Z,4.93
2022-12-01T04:44:01.455Z,4.88
2022-12-01T04:48:54.948Z,4.25
2022-12-01T04:53:49.262Z,4.32
2022-12-01T04:58:43.279Z,10.07
2022-12-01T05:03:41.262Z,4.30
2022-12-01T05:08:35.225Z,4.25
2022-12-01T05:13:28.599Z,4.60
2022-12-01T05:18:23.079Z,5.07
2022-12-01T05:23:17.414Z,5.80
2022-12-01T05:28:11.214Z,5.18
2022-12-01T05:33:05.559Z,6.65
2022-12-01T05:38:03.264Z,5.53
2022-12-01T05:43:00.163Z,5.80
2022-12-01T05:48:00.621Z,4.32
2022-12-01T05:52:53.781Z,4.22
2022-12-01T05:57:48.000Z,4.30
2022-12-01T06:02:42.707Z,4.65
2022-12-01T06:07:36.600Z,4.47
2022-12-01T06:12:29.794Z,7.05
2022-12-01T06:17:24.118Z,4.63
2022-12-01T06:22:17.671Z,5.88
2022-12-01T06:27:10.294Z,5.93
2022-12-01T06:32:03.918Z,5.68
2022-12-01T06:36:57.200Z,7.03
2022-12-01T06:41:50.306Z,8.52
2022-12-01T06:46:43.723Z,8.38
2022-12-01T06:51:36.710Z,7.80
2022-12-01T06:56:30.678Z,10.30
2022-12-01T07:01:24.488Z,9.85
2022-12-01T07:06:18.752Z,21.73
2022-12-01T07:11:15.409Z,25.65
2022-12-01T07:16:09.927Z,21.98
2022-12-01T07:21:04.764Z,23.38
2022-12-01T07:26:08.275Z,22.08
2022-12-01T07:31:13.117Z,22.63
2022-12-01T07:36:08.691Z,25.10
2022-12-01T07:41:22.492Z,20.23
2022-12-01T07:46:23.504Z,25.08
2022-12-01T07:56:11.101Z,21.92
2022-12-01T08:01:12.257Z,24.58
2022-12-01T08:06:07.384Z,23.63
2022-12-01T08:11:03.737Z,17.20
2022-12-01T08:15:57.512Z,16.77
2022-12-01T08:20:51.937Z,17.02
2022-12-01T08:25:45.543Z,14.88
2022-12-01T08:30:39.193Z,15.77
2022-12-01T08:35:34.638Z,14.68
2022-12-01T08:40:28.067Z,11.52
2022-12-01T08:45:21.209Z,11.95
2022-12-01T08:50:15.268Z,11.13
2022-12-01T08:55:08.890Z,10.07
2022-12-01T09:00:03.353Z,8.82
2022-12-01T09:04:57.358Z,8.93
2022-12-01T09:09:51.415Z,10.02
2022-12-01T09:14:50.037Z,8.35
2022-12-01T09:19:45.008Z,7.00
2022-12-01T09:24:39.425Z,7.30
2022-12-01T09:29:33.301Z,7.38
2022-12-01T09:34:27.374Z,7.55
2022-12-01T09:39:21.414Z,7.50
2022-12-01T09:44:33.465Z,7.95
2022-12-01T09:49:51.137Z,7.40
2022-12-01T09:54:44.233Z,6.80
2022-12-01T09:59:42.221Z,8.00
2022-12-01T10:04:40.331Z,6.18
2022-12-01T10:09:36.609Z,7.00
2022-12-01T10:14:34.215Z,6.22
2022-12-01T10:19:33.092Z,7.13
2022-12-01T10:24:37.591Z,8.55
2022-12-01T10:29:48.018Z,6.53
2022-12-01T10:34:47.378Z,5.28
2022-12-01T10:39:44.031Z,7.22
2022-12-01T10:44:37.905Z,7.03
2022-12-01T10:49:42.001Z,8.10
2022-12-01T10:54:41.246Z,7.45
2022-12-01T10:59:55.889Z,6.78
2022-12-01T11:04:55.279Z,5.80
2022-12-01T11:09:59.010Z,10.23
2022-12-01T11:14:54.902Z,5.88
2022-12-01T11:19:49.147Z,6.78
2022-12-01T11:24:57.449Z,6.25
2022-12-01T11:29:55.407Z,6.72
2022-12-01T11:34:57.617Z,5.90
2022-12-01T11:39:52.262Z,5.88
2022-12-01T11:45:11.475Z,5.38
2022-12-01T11:50:25.346Z,5.75
2022-12-01T11:55:18.299Z,9.30
2022-12-01T12:00:14.855Z,6.15
2022-12-01T12:06:17.701Z,8.07
2022-12-01T12:11:30.545Z,6.95
2022-12-01T12:16:28.726Z,8.82
2022-12-01T12:21:58.108Z,7.60
2022-12-01T12:27:34.168Z,7.85
2022-12-01T12:32:52.272Z,7.57
2022-12-01T12:38:09.175Z,9.60
2022-12-01T12:43:25.037Z,6.53
2022-12-01T12:48:23.965Z,8.45
2022-12-01T12:53:23.728Z,8.75
2022-12-01T12:58:19.576Z,7.50
2022-12-01T13:04:07.718Z,7.77
2022-12-01T13:09:12.021Z,13.27
2022-12-01T13:14:16.048Z,9.32
2022-12-01T13:19:27.668Z,7.60
2022-12-01T13:24:24.376Z,11.05
2022-12-01T13:29:22.114Z,6.07
2022-12-01T13:34:32.878Z,7.00
2022-12-01T13:39:29.107Z,6.93
2022-12-01T13:44:33.549Z,6.15
2022-12-01T13:49:58.905Z,7.00
2022-12-01T13:55:10.575Z,7.18
2022-12-01T14:00:21.500Z,5.95
2022-12-01T14:05:24.045Z,7.03
2022-12-01T14:10:30.745Z,5.47
2022-12-01T14:15:43.162Z,7.40
2022-12-01T14:20:46.342Z,7.13
2022-12-01T14:25:40.750Z,6.15
2022-12-01T14:30:40.076Z,9.70
2022-12-01T14:35:35.247Z,8.18
2022-12-01T14:40:31.320Z,7.38
2022-12-01T14:46:06.931Z,7.25
2022-12-01T14:51:15.859Z,6.30
2022-12-01T14:56:13.074Z,8.00
2022-12-01T15:01:45.767Z,7.93
2022-12-01T15:07:18.497Z,6.05
2022-12-01T15:12:40.878Z,8.35
2022-12-01T15:17:37.748Z,8.10
2022-12-01T15:22:33.193Z,5.25
2022-12-01T15:27:31.825Z,6.97
2022-12-01T15:32:27.730Z,8.05
2022-12-01T15:37:24.722Z,7.18
2022-12-01T15:42:26.865Z,5.75
2022-12-01T15:47:56.271Z,8.35
2022-12-01T15:52:51.206Z,5.70
2022-12-01T15:57:47.470Z,9.13
2022-12-01T16:02:41.148Z,6.65
2022-12-01T16:08:11.300Z,6.22
2022-12-01T16:12:50.269Z,5.68
2022-12-01T16:17:50.475Z,7.35
2022-12-01T16:22:47.734Z,6.68
2022-12-01T16:27:41.954Z,7.82
2022-12-01T16:32:37.327Z,6.22
2022-12-01T16:37:30.567Z,5.60
2022-12-01T16:42:24.399Z,8.18
2022-12-01T16:47:22.534Z,6.38
2022-12-01T16:52:42.985Z,7.65
2022-12-01T16:57:29.936Z,5.88
2022-12-01T17:02:22.799Z,5.38
2022-12-01T17:07:16.423Z,5.75
2022-12-01T17:12:14.261Z,6.38
2022-12-01T17:17:07.970Z,6.07
2022-12-01T17:22:02.095Z,6.97
2022-12-01T17:26:55.876Z,5.72
2022-12-01T17:31:50.456Z,6.03
2022-12-01T17:36:42.950Z,5.57
2022-12-01T17:41:36.733Z,6.57
2022-12-01T17:46:30.643Z,5.13
2022-12-01T17:51:24.879Z,6.30
2022-12-01T17:56:18.034Z,8.85
2022-12-01T18:01:31.661Z,7.13
2022-12-01T18:06:26.030Z,8.13
2022-12-01T18:11:20.080Z,9.43
2022-12-01T18:16:17.186Z,11.93
2022-12-01T18:21:17.681Z,12.57
2022-12-01T18:26:16.098Z,14.40
2022-12-01T18:31:12.532Z,16.65
2022-12-01T18:36:27.968Z,21.70
2022-12-01T18:41:24.972Z,18.10
2022-12-01T18:46:19.929Z,16.92
2022-12-01T18:51:13.565Z,18.10
2022-12-01T18:56:11.687Z,17.23
2022-12-01T19:01:21.471Z,14.60
2022-12-01T19:06:15.101Z,16.90
2022-12-01T19:11:09.137Z,17.52
2022-12-01T19:16:11.612Z,14.50
2022-12-01T19:21:06.993Z,18.38
2022-12-01T19:25:59.697Z,33.15
2022-12-01T19:30:52.607Z,31.67
2022-12-01T19:35:45.118Z,41.22
2022-12-01T19:40:39.421Z,35.35
2022-12-01T19:45:33.488Z,35.40
2022-12-01T19:50:27.480Z,24.95
2022-12-01T19:55:20.832Z,27.30
2022-12-01T20:00:16.573Z,29.13
2022-12-01T20:05:10.910Z,33.50
2022-12-01T20:10:05.113Z,34.72
2022-12-01T20:14:58.449Z,39.42
2022-12-01T20:19:51.736Z,27.92
2022-12-01T20:24:46.270Z,25.58
2022-12-01T20:29:40.113Z,28.65
2022-12-01T20:34:38.135Z,22.80
2022-12-01T20:39:36.113Z,31.65
2022-12-01T20:44:30.495Z,21.83
2022-12-01T20:49:24.302Z,25.00
2022-12-01T20:54:28.298Z,24.17
2022-12-01T20:59:23.668Z,21.42
2022-12-01T21:04:17.252Z,26.50
2022-12-01T21:09:10.303Z,20.92
2022-12-01T21:14:05.276Z,19.23
2022-12-01T21:19:11.786Z,18.13
2022-12-01T21:24:20.879Z,15.80
2022-12-01T21:29:22.399Z,17.60
2022-12-01T21:34:27.279Z,18.35
2022-12-01T21:39:23.968Z,15.00
2022-12-01T21:44:21.039Z,17.52
2022-12-01T21:49:15.459Z,13.20
2022-12-01T21:54:16.435Z,17.70
2022-12-01T21:59:16.175Z,13.65
2022-12-01T22:04:19.441Z,17.00
2022-12-01T22:09:35.538Z,16.08
2022-12-01T22:14:36.825Z,14.30
2022-12-01T22:19:42.766Z,11.30
2022-12-01T22:24:48.680Z,12.27
2022-12-01T22:29:46.067Z,12.15
2022-12-01T22:34:38.972Z,13.43
2022-12-01T22:39:36.165Z,12.02
2022-12-01T22:44:32.151Z,11.52
2022-12-01T22:49:25.692Z,12.43
2022-12-01T22:54:19.186Z,14.02
2022-12-01T22:59:23.039Z,14.77
2022-12-01T23:04:25.661Z,12.07
2022-12-01T23:09:18.865Z,14.40
2022-12-01T23:14:20.282Z,11.50
2022-12-01T23:19:14.766Z,12.43
2022-12-01T23:24:10.997Z,14.25
2022-12-01T23:29:04.282Z,11.80
2022-12-01T23:33:57.633Z,11.10
2022-12-01T23:38:55.771Z,10.50
2022-12-01T23:43:49.757Z,11.98
2022-12-01T23:48:49.811Z,11.05
2022-12-01T23:53:44.031Z,12.27
2022-12-01T23:58:37.378Z,11.07
